Time;durP1;ratioP1;P1;durP2;ratioP2;P2;SDS_P1;SDS_P2;PMS_P1;PMS_P2;Temp;Humidity;BMP_temperature;BMP_pressure;BME280_temperature;BME280_humidity;BME280_pressure;Samples;Min_cycle;Max_cycle;Signal;HPM_P1;HPM_P2
2023/07/17 00:01:44;;;;;;;0.00;0.00;;;;;;;19.30;56.58;101559.50;5049257;28;20024;-82
2023/07/17 00:04:11;;;;;;;0.10;0.10;;;;;;;19.29;56.55;101560.44;5051526;28;20041;-82
2023/07/17 00:06:37;;;;;;;0.03;0.03;;;;;;;19.27;56.65;101562.28;5036156;28;20043;-80
2023/07/17 00:09:03;;;;;;;0.00;0.00;;;;;;;19.20;56.99;101558.13;5033027;28;20104;-84
2023/07/17 00:11:30;;;;;;;0.00;0.00;;;;;;;19.24;56.79;101555.25;5034279;28;20036;-83
2023/07/17 00:13:56;;;;;;;0.00;0.00;;;;;;;19.24;57.13;101559.75;5039253;27;20038;-81
2023/07/17 00:16:22;;;;;;;0.10;0.10;;;;;;;19.21;56.91;101567.94;5043608;28;20045;-80
2023/07/17 00:18:48;;;;;;;0.10;0.10;;;;;;;19.13;57.42;101559.34;5042929;27;20036;-80
2023/07/17 00:21:14;;;;;;;0.10;0.10;;;;;;;19.20;56.99;101558.13;5040802;27;20044;-83
2023/07/17 00:23:41;;;;;;;0.10;0.10;;;;;;;19.22;57.06;101558.94;5033333;27;20021;-84
2023/07/17 00:26:07;;;;;;;0.00;0.00;;;;;;;19.22;56.79;101562.50;5042947;27;20060;-81
2023/07/17 00:28:33;;;;;;;0.00;0.00;;;;;;;19.17;56.86;101569.91;5052092;28;20398;-81
2023/07/17 00:30:59;;;;;;;0.75;0.75;;;;;;;19.16;56.67;101562.78;5036085;27;20517;-80
2023/07/17 00:33:25;;;;;;;0.00;0.00;;;;;;;19.08;57.42;101557.75;5036728;28;20502;-81
2023/07/17 00:35:51;;;;;;;4.28;1.45;;;;;;;19.05;57.28;101570.44;5059812;27;20025;-82
2023/07/17 00:38:17;;;;;;;0.28;0.28;;;;;;;19.03;57.34;101565.13;5034753;27;20600;-81
2023/07/17 00:40:44;;;;;;;0.00;0.00;;;;;;;18.93;57.63;101569.19;5040770;28;20033;-81
2023/07/17 00:43:12;;;;;;;0.00;0.00;;;;;;;18.85;58.12;101576.66;5052703;28;20022;-82
2023/07/17 00:45:41;;;;;;;0.10;0.10;;;;;;;18.84;58.16;101572.22;5031206;28;20473;-82
2023/07/17 00:48:09;;;;;;;0.00;0.00;;;;;;;18.82;57.99;101566.91;5031993;28;20029;-81
2023/07/17 00:50:36;;;;;;;0.10;0.10;;;;;;;18.81;57.84;101572.34;5025394;28;20052;-80
2023/07/17 00:53:03;;;;;;;0.10;0.10;;;;;;;18.80;58.58;101573.28;5042412;28;20407;-81
2023/07/17 00:55:31;;;;;;;0.03;0.03;;;;;;;18.79;58.58;101567.06;5022981;27;20095;-81
2023/07/17 00:57:57;;;;;;;0.10;0.10;;;;;;;18.77;58.52;101571.63;5024612;28;20082;-81
2023/07/17 01:00:24;;;;;;;0.25;0.25;;;;;;;18.76;58.38;101576.09;5041155;28;20058;-82
2023/07/17 01:02:53;;;;;;;0.03;0.03;;;;;;;18.81;58.07;101580.41;5060131;27;20025;-82
2023/07/17 01:05:19;;;;;;;0.10;0.10;;;;;;;18.77;58.49;101585.03;5041846;28;20280;-82
2023/07/17 01:07:45;;;;;;;0.00;0.00;;;;;;;18.72;58.80;101581.69;5051559;28;20025;-83
2023/07/17 01:10:12;;;;;;;0.10;0.10;;;;;;;18.65;59.14;101581.03;5038154;28;20043;-82
2023/07/17 01:12:38;;;;;;;0.15;0.15;;;;;;;18.61;59.23;101579.44;5045764;28;20021;-83
2023/07/17 01:15:06;;;;;;;0.10;0.10;;;;;;;18.60;59.45;101591.09;5045540;28;20034;-82
2023/07/17 01:17:32;;;;;;;1.27;1.17;;;;;;;18.56;59.18;101586.81;5044112;28;20025;-82
2023/07/17 01:19:59;;;;;;;0.00;0.00;;;;;;;18.60;59.41;101588.44;5041604;28;20029;-82
2023/07/17 01:25:03;;;;;;;0.00;0.00;;;;;;;18.61;59.17;101594.69;5085328;27;20906;-81
2023/07/17 01:27:29;;;;;;;0.10;0.10;;;;;;;18.57;59.18;101594.78;5076783;28;20373;-83
2023/07/17 01:29:55;;;;;;;0.10;0.10;;;;;;;18.61;58.71;101586.63;5076133;28;20040;-82
2023/07/17 01:32:21;;;;;;;1.20;1.20;;;;;;;18.58;59.11;101590.31;5073981;28;20032;-82
2023/07/17 01:34:47;;;;;;;0.35;0.35;;;;;;;18.56;59.01;101594.88;5079378;28;20025;-83
2023/07/17 01:37:13;;;;;;;0.03;0.03;;;;;;;18.54;59.05;101599.41;5069956;28;20140;-83
2023/07/17 01:39:40;;;;;;;0.10;0.10;;;;;;;18.50;59.15;101590.63;5069313;28;20393;-83
2023/07/17 01:42:07;;;;;;;0.03;0.03;;;;;;;18.51;59.26;101596.88;5074076;28;20035;-83
2023/07/17 01:44:34;;;;;;;0.10;0.10;;;;;;;18.52;59.05;101591.44;5067728;28;20059;-83
2023/07/17 01:47:00;;;;;;;0.82;0.82;;;;;;;18.42;59.64;101590.94;5068925;28;20037;-82
2023/07/17 01:49:26;;;;;;;0.17;0.17;;;;;;;18.42;59.43;101596.31;5069133;28;20111;-82
2023/07/17 01:51:52;;;;;;;0.22;0.22;;;;;;;18.43;59.35;101592.69;5070210;28;20033;-82
2023/07/17 01:54:18;;;;;;;0.10;0.10;;;;;;;18.32;59.60;101594.94;5068468;28;20486;-82
2023/07/17 01:56:44;;;;;;;23.80;1.23;;;;;;;18.34;59.86;101587.69;5069104;28;20042;-83
2023/07/17 01:59:11;;;;;;;0.08;0.08;;;;;;;18.24;60.27;101589.00;5069417;28;20086;-83
2023/07/17 02:01:37;;;;;;;0.10;0.10;;;;;;;18.25;60.12;101594.28;5070232;28;20032;-82
2023/07/17 02:04:03;;;;;;;0.85;0.85;;;;;;;18.22;59.94;101594.44;5070496;28;20105;-84
2023/07/17 02:06:29;;;;;;;0.00;0.00;;;;;;;18.26;59.65;101587.13;5069492;28;20032;-83
2023/07/17 02:08:56;;;;;;;0.10;0.10;;;;;;;18.24;60.13;101592.56;5068811;28;20044;-82
2023/07/17 02:11:26;;;;;;;0.20;0.20;;;;;;;18.18;60.32;101586.56;5073662;28;20059;-83
2023/07/17 02:13:53;;;;;;;0.10;0.10;;;;;;;18.19;60.64;101599.91;5070640;28;20024;-83
2023/07/17 02:16:19;;;;;;;0.35;0.35;;;;;;;18.15;60.31;101597.44;5070308;28;20024;-83
2023/07/17 02:18:45;;;;;;;0.05;0.05;;;;;;;18.16;60.57;101607.22;5069681;28;20031;-83
2023/07/17 02:21:11;;;;;;;0.10;0.10;;;;;;;18.08;60.67;101597.66;5068524;28;20033;-83
2023/07/17 02:23:37;;;;;;;0.10;0.10;;;;;;;18.07;60.29;101595.06;5070073;28;20036;-83
2023/07/17 02:26:03;;;;;;;0.10;0.10;;;;;;;18.13;60.10;101591.25;5072100;28;20024;-82
2023/07/17 02:28:29;;;;;;;0.25;0.25;;;;;;;18.05;60.22;101595.09;5071584;28;20037;-83
2023/07/17 02:30:56;;;;;;;1.17;0.77;;;;;;;18.09;60.21;101595.84;5070815;28;20037;-83
2023/07/17 02:33:22;;;;;;;0.10;0.10;;;;;;;18.05;60.38;101596.91;5070026;28;20017;-83
2023/07/17 02:35:48;;;;;;;0.80;0.80;;;;;;;18.01;60.55;101596.16;5058462;28;20024;-82
2023/07/17 02:38:14;;;;;;;0.20;0.20;;;;;;;17.96;60.62;101603.50;5055884;28;20072;-81
2023/07/17 02:40:40;;;;;;;0.08;0.08;;;;;;;17.91;60.99;101605.47;5057112;28;20439;-81
2023/07/17 02:43:07;;;;;;;0.10;0.10;;;;;;;17.91;60.76;101602.78;5056187;28;20100;-81
2023/07/17 02:45:34;;;;;;;0.10;0.10;;;;;;;17.87;61.02;101609.19;5055517;28;20461;-82
2023/07/17 02:48:00;;;;;;;0.10;0.10;;;;;;;17.93;60.40;101609.84;5059264;28;20029;-82
2023/07/17 02:50:26;;;;;;;0.10;0.10;;;;;;;17.91;61.29;101613.50;5057560;28;20028;-82
2023/07/17 02:52:52;;;;;;;0.00;0.00;;;;;;;17.91;60.85;101610.84;5058430;28;20025;-82
2023/07/17 02:55:18;;;;;;;0.10;0.10;;;;;;;17.81;61.52;101613.00;5059607;28;20033;-83
2023/07/17 02:57:44;;;;;;;0.30;0.30;;;;;;;17.74;61.43;101615.00;5058831;28;20033;-82
2023/07/17 03:00:12;;;;;;;0.10;0.10;;;;;;;17.67;61.77;101618.88;5058675;28;20040;-82
2023/07/17 03:02:40;;;;;;;0.10;0.10;;;;;;;17.68;61.65;101615.25;5058645;28;20032;-82
2023/07/17 03:05:08;;;;;;;0.22;0.13;;;;;;;17.65;62.47;101618.06;5056448;28;20029;-82
2023/07/17 03:07:36;;;;;;;0.00;0.00;;;;;;;17.67;62.25;101613.50;5064417;28;20028;-82
2023/07/17 03:10:04;;;;;;;1.90;0.43;;;;;;;17.67;62.10;101624.25;5069871;28;20033;-82
2023/07/17 03:12:30;;;;;;;0.10;0.10;;;;;;;17.58;62.96;101620.09;5060069;28;20029;-83
2023/07/17 03:14:56;;;;;;;0.55;0.55;;;;;;;17.65;62.47;101625.22;5058452;28;20033;-81
2023/07/17 03:17:22;;;;;;;0.00;0.00;;;;;;;17.62;62.33;101620.84;5064360;28;20032;-82
2023/07/17 03:19:48;;;;;;;1.75;0.82;;;;;;;17.63;62.63;101620.78;5065003;28;20021;-82
2023/07/17 03:22:14;;;;;;;0.20;0.20;;;;;;;17.60;62.42;101618.22;5068941;28;20057;-81
2023/07/17 03:24:40;;;;;;;0.00;0.00;;;;;;;17.67;62.69;101624.25;5064854;28;20040;-81
2023/07/17 03:27:06;;;;;;;0.10;0.10;;;;;;;17.65;62.33;101620.72;5068818;28;20039;-82
2023/07/17 03:29:32;;;;;;;0.00;0.00;;;;;;;17.67;62.63;101624.25;5068222;28;20032;-80
2023/07/17 03:31:58;;;;;;;0.10;0.10;;;;;;;17.70;62.46;101623.25;5067641;28;20051;-81
2023/07/17 03:34:25;;;;;;;0.82;0.82;;;;;;;17.66;63.03;101624.28;5066074;28;20079;-81
2023/07/17 03:36:51;;;;;;;0.20;0.20;;;;;;;17.62;63.29;101626.22;5068687;28;20021;-81
2023/07/17 03:39:17;;;;;;;0.08;0.08;;;;;;;17.70;63.07;101621.44;5058515;28;20079;-82
2023/07/17 03:41:43;;;;;;;0.80;0.80;;;;;;;17.75;63.16;101624.81;5050040;28;20421;-81
2023/07/17 03:44:09;;;;;;;0.63;0.63;;;;;;;17.81;62.74;101625.50;5057070;28;20552;-81
2023/07/17 03:46:35;;;;;;;0.10;0.10;;;;;;;17.85;62.08;101628.00;5055227;28;20059;-82
2023/07/17 03:49:02;;;;;;;0.10;0.10;;;;;;;17.84;62.05;101626.25;5057794;28;20033;-82
2023/07/17 03:51:28;;;;;;;0.45;0.45;;;;;;;17.84;62.05;101625.41;5057420;28;20035;-82
2023/07/17 03:53:54;;;;;;;0.40;0.40;;;;;;;17.75;63.02;101621.25;5057633;28;20060;-81
2023/07/17 03:56:20;;;;;;;0.00;0.00;;;;;;;17.76;62.69;101626.56;5057333;28;20520;-82
2023/07/17 03:58:47;;;;;;;0.03;0.03;;;;;;;17.72;63.23;101634.75;5056895;28;20071;-80
2023/07/17 04:01:13;;;;;;;0.10;0.10;;;;;;;17.74;63.34;101638.28;5055338;28;20033;-82
2023/07/17 04:03:41;;;;;;;0.10;0.10;;;;;;;17.75;63.35;101632.84;5056211;28;20083;-82
2023/07/17 04:06:08;;;;;;;0.68;0.68;;;;;;;17.75;63.20;101631.97;5057147;28;20123;-82
2023/07/17 04:08:34;;;;;;;0.20;0.20;;;;;;;17.73;63.67;101626.69;5057639;28;20029;-82
2023/07/17 04:11:01;;;;;;;0.05;0.05;;;;;;;17.74;63.72;101636.44;5057074;28;20075;-82
2023/07/17 04:13:27;;;;;;;0.38;0.38;;;;;;;17.76;63.59;101634.59;5055952;28;20032;-81
2023/07/17 04:15:53;;;;;;;0.05;0.05;;;;;;;17.73;63.87;101645.44;5055396;28;20512;-81
2023/07/17 04:18:20;;;;;;;0.63;0.63;;;;;;;17.72;63.96;101643.69;5056883;28;20113;-81
2023/07/17 04:20:46;;;;;;;0.10;0.10;;;;;;;17.69;63.97;101643.78;5057176;28;20569;-83
2023/07/17 04:23:12;;;;;;;0.08;0.08;;;;;;;17.65;64.12;101644.84;5058721;28;20033;-79
2023/07/17 04:25:40;;;;;;;0.00;0.00;;;;;;;17.54;64.45;101642.56;5057513;28;20028;-79
2023/07/17 04:28:06;;;;;;;0.20;0.20;;;;;;;17.60;63.97;101652.19;5057040;28;20056;-79
2023/07/17 04:30:34;;;;;;;0.10;0.10;;;;;;;17.63;63.88;101644.03;5055065;28;20029;-79
2023/07/17 04:33:00;;;;;;;0.10;0.10;;;;;;;17.54;64.51;101655.09;5055223;28;20063;-79
2023/07/17 04:35:27;;;;;;;0.20;0.20;;;;;;;17.66;64.16;101653.75;5057994;28;20021;-79
2023/07/17 04:37:56;;;;;;;0.55;0.55;;;;;;;17.65;64.51;101658.25;5060301;28;20100;-79
2023/07/17 04:40:22;;;;;;;0.10;0.10;;;;;;;17.79;64.13;101658.63;5057330;28;20048;-79
2023/07/17 04:42:48;;;;;;;0.20;0.20;;;;;;;17.84;64.19;101657.56;5056487;28;20029;-81
2023/07/17 04:45:16;;;;;;;0.10;0.10;;;;;;;17.94;64.22;101657.19;5054638;28;20037;-80
2023/07/17 04:47:42;;;;;;;0.10;0.10;;;;;;;17.97;63.93;101669.63;5057911;28;20074;-80
2023/07/17 04:50:09;;;;;;;0.10;0.10;;;;;;;18.06;63.95;101671.94;5056240;28;20082;-80
2023/07/17 04:52:35;;;;;;;0.10;0.10;;;;;;;18.13;63.45;101674.38;5058033;28;20044;-81
2023/07/17 04:55:01;;;;;;;0.05;0.05;;;;;;;18.17;63.62;101682.25;5057562;28;20029;-80
2023/07/17 04:57:27;;;;;;;1.20;0.40;;;;;;;18.17;64.07;101686.72;5057032;28;20568;-80
2023/07/17 04:59:53;;;;;;;0.10;0.10;;;;;;;18.14;64.59;101684.19;5055534;28;20036;-80
2023/07/17 05:02:20;;;;;;;0.20;0.20;;;;;;;18.17;64.69;101693.00;5055765;28;20376;-80
2023/07/17 05:04:46;;;;;;;0.20;0.20;;;;;;;18.14;64.94;101689.53;5048907;28;20508;-80
2023/07/17 05:07:12;;;;;;;0.20;0.20;;;;;;;18.10;64.31;101686.97;5057937;28;20056;-80
2023/07/17 05:09:38;;;;;;;0.00;0.00;;;;;;;18.00;65.37;101692.75;5056707;28;20506;-79
2023/07/17 05:12:05;;;;;;;0.10;0.10;;;;;;;18.08;64.81;101698.69;5055433;28;20055;-79
2023/07/17 05:14:31;;;;;;;0.10;0.10;;;;;;;17.97;65.62;101691.06;5055231;28;20047;-80
2023/07/17 05:16:57;;;;;;;0.20;0.20;;;;;;;18.02;65.58;101698.91;5055205;28;20037;-80
2023/07/17 05:19:23;;;;;;;0.08;0.08;;;;;;;18.02;64.98;101699.81;5055497;28;20061;-80
2023/07/17 05:21:50;;;;;;;0.10;0.10;;;;;;;18.05;65.26;101694.31;5056236;28;20498;-80
2023/07/17 05:24:16;;;;;;;0.00;0.00;;;;;;;18.05;64.83;101696.13;5056722;28;20044;-80
2023/07/17 05:26:42;;;;;;;0.30;0.30;;;;;;;18.16;65.02;101711.81;5056238;28;20116;-80
2023/07/17 05:29:08;;;;;;;0.25;0.25;;;;;;;18.24;65.02;101709.69;5055935;28;20029;-80
2023/07/17 05:31:34;;;;;;;0.10;0.10;;;;;;;18.21;64.89;101709.84;5056239;28;20097;-79
2023/07/17 05:34:01;;;;;;;0.65;0.65;;;;;;;18.29;64.92;101709.53;5055570;28;20032;-79
2023/07/17 05:36:27;;;;;;;0.68;0.68;;;;;;;18.32;64.73;101723.72;5056446;28;20037;-79
2023/07/17 05:38:53;;;;;;;0.10;0.10;;;;;;;18.35;64.33;101718.22;5056796;28;20093;-80
2023/07/17 05:41:19;;;;;;;1.20;1.10;;;;;;;18.45;65.20;101717.88;5055673;28;20025;-81
2023/07/17 05:43:45;;;;;;;0.10;0.10;;;;;;;18.47;64.97;101719.56;5055662;28;20021;-79
2023/07/17 05:46:12;;;;;;;0.10;0.10;;;;;;;18.52;64.51;101725.59;5054379;28;20042;-80
2023/07/17 05:48:38;;;;;;;0.38;0.38;;;;;;;18.37;64.90;101721.72;5055263;28;20051;-82
2023/07/17 05:51:04;;;;;;;0.10;0.10;;;;;;;18.35;64.28;101728.94;5055588;28;20048;-79
2023/07/17 05:53:31;;;;;;;1.05;1.05;;;;;;;18.27;64.87;101728.38;5050869;28;20056;-79
2023/07/17 05:55:57;;;;;;;0.25;0.25;;;;;;;18.30;64.72;101735.44;5060958;28;20366;-80
2023/07/17 05:58:25;;;;;;;0.08;0.08;;;;;;;18.35;64.71;101728.94;5062048;28;20576;-79
2023/07/17 06:00:51;;;;;;;0.10;0.10;;;;;;;18.33;64.60;101729.94;5056420;28;20490;-79
2023/07/17 06:03:17;;;;;;;0.08;0.08;;;;;;;18.30;65.44;101735.44;5060035;28;20510;-79
2023/07/17 06:05:44;;;;;;;0.15;0.15;;;;;;;18.29;64.88;101739.03;5057558;28;20024;-78
2023/07/17 06:08:10;;;;;;;0.00;0.00;;;;;;;18.30;65.02;101752.38;5052910;28;20037;-78
2023/07/17 06:10:36;;;;;;;0.10;0.10;;;;;;;18.38;64.98;101750.31;5046512;28;20037;-78
2023/07/17 06:13:03;;;;;;;0.10;0.10;;;;;;;18.45;64.67;101747.38;5056330;28;20033;-80
2023/07/17 06:15:29;;;;;;;0.43;0.43;;;;;;;18.54;64.71;101752.38;5057605;28;20491;-79
2023/07/17 06:17:55;;;;;;;0.95;0.80;;;;;;;18.59;64.71;101747.69;5060232;28;20032;-78
2023/07/17 06:20:21;;;;;;;0.15;0.15;;;;;;;18.78;64.54;101753.25;5059622;28;20037;-79
2023/07/17 06:22:47;;;;;;;0.10;0.10;;;;;;;18.83;64.12;101743.19;5052925;28;20031;-78
2023/07/17 06:25:13;;;;;;;0.20;0.20;;;;;;;18.93;63.77;101741.03;5061417;28;20021;-79
2023/07/17 06:27:39;;;;;;;0.28;0.28;;;;;;;18.95;63.64;101755.25;5061373;28;20056;-78
2023/07/17 06:30:06;;;;;;;0.35;0.35;;;;;;;19.05;63.04;101755.75;5059702;28;20194;-78
2023/07/17 06:32:33;;;;;;;0.75;0.75;;;;;;;19.22;62.95;101755.91;5060225;28;20021;-79
2023/07/17 06:34:59;;;;;;;0.85;0.85;;;;;;;19.20;63.01;101762.31;5059656;28;20029;-79
2023/07/17 06:37:25;;;;;;;0.10;0.10;;;;;;;19.28;62.82;101761.97;5064641;28;20650;-79
2023/07/17 06:39:52;;;;;;;0.00;0.00;;;;;;;19.31;62.49;101760.03;5064078;28;20696;-79
2023/07/17 06:42:18;;;;;;;2.40;1.30;;;;;;;19.48;62.37;101755.78;5061572;28;20029;-79
2023/07/17 06:44:44;;;;;;;0.63;0.63;;;;;;;19.61;62.31;101765.03;5061188;28;20024;-79
2023/07/17 06:47:11;;;;;;;15.68;2.40;;;;;;;19.64;61.70;101758.66;5065037;28;20055;-77
2023/07/17 06:49:37;;;;;;;0.10;0.10;;;;;;;19.60;61.57;101763.31;5062458;28;20498;-78
2023/07/17 06:52:03;;;;;;;0.40;0.40;;;;;;;19.69;61.41;101765.59;5063896;28;20112;-79
2023/07/17 06:54:29;;;;;;;0.10;0.10;;;;;;;19.84;61.00;101765.91;5064987;28;20021;-80
2023/07/17 06:56:55;;;;;;;0.30;0.30;;;;;;;19.94;60.82;101767.22;5063778;28;20037;-79
2023/07/17 06:59:25;;;;;;;0.20;0.20;;;;;;;19.98;60.45;101770.66;5064251;28;20044;-81
2023/07/17 07:01:53;;;;;;;0.60;0.60;;;;;;;19.97;60.10;101776.97;5063858;28;20037;-81
2023/07/17 07:04:19;;;;;;;0.20;0.20;;;;;;;20.01;60.25;101775.88;5061820;28;20041;-81
2023/07/17 07:06:45;;;;;;;0.20;0.20;;;;;;;20.04;59.89;101776.63;5061526;28;20405;-79
2023/07/17 07:09:11;;;;;;;0.52;0.52;;;;;;;20.09;59.56;101775.53;5061676;28;20074;-80
2023/07/17 07:11:37;;;;;;;0.52;0.25;;;;;;;20.29;59.98;101782.72;5063019;28;20044;-80
2023/07/17 07:14:03;;;;;;;0.10;0.10;;;;;;;20.32;59.02;101782.56;5060772;28;20036;-80
2023/07/17 07:16:29;;;;;;;3.53;0.55;;;;;;;20.54;59.26;101787.81;5064214;28;20029;-80
2023/07/17 07:18:55;;;;;;;0.25;0.25;;;;;;;20.46;58.47;101795.38;5064580;28;20092;-80
2023/07/17 07:21:21;;;;;;;0.30;0.30;;;;;;;20.49;58.65;101795.25;5062149;28;20376;-80
2023/07/17 07:23:48;;;;;;;0.40;0.40;;;;;;;20.46;58.26;101795.38;5063150;28;20044;-79
2023/07/17 07:26:14;;;;;;;0.73;0.73;;;;;;;20.57;57.86;101800.25;5061708;28;20033;-80
2023/07/17 07:28:40;;;;;;;0.55;0.55;;;;;;;20.64;57.43;101805.28;5064781;28;20055;-80
2023/07/17 07:31:06;;;;;;;0.10;0.10;;;;;;;20.66;56.44;101806.09;5062811;28;20043;-79
2023/07/17 07:33:32;;;;;;;0.22;0.22;;;;;;;20.81;56.21;101811.72;5062845;28;20104;-78
2023/07/17 07:35:59;;;;;;;0.20;0.20;;;;;;;20.82;55.87;101813.47;5063646;28;20112;-80
2023/07/17 07:38:25;;;;;;;0.10;0.10;;;;;;;20.90;56.12;101803.22;5063504;28;20033;-81
2023/07/17 07:40:51;;;;;;;1.85;0.82;;;;;;;20.93;55.21;101803.03;5061795;28;20040;-80
2023/07/17 07:43:17;;;;;;;0.10;0.10;;;;;;;21.00;54.19;101812.59;5060612;28;20483;-80
2023/07/17 07:45:43;;;;;;;0.17;0.17;;;;;;;21.10;53.55;101833.72;5056245;28;20037;-79
2023/07/17 07:48:09;;;;;;;0.10;0.10;;;;;;;21.05;51.44;101819.56;5057884;28;20033;-80
2023/07/17 07:50:35;;;;;;;1.15;1.08;;;;;;;21.17;52.51;101821.66;5058938;28;20033;-80
2023/07/17 07:53:02;;;;;;;0.10;0.10;;;;;;;21.36;53.50;101826.13;5057745;28;20032;-80
2023/07/17 07:55:28;;;;;;;0.10;0.10;;;;;;;21.28;51.56;101822.03;5059797;28;20040;-80
2023/07/17 07:57:54;;;;;;;0.65;0.65;;;;;;;21.36;50.22;101823.44;5064717;28;20124;-84
2023/07/17 08:00:20;;;;;;;0.35;0.35;;;;;;;21.25;48.44;101826.69;5064229;28;20052;-79
2023/07/17 08:02:46;;;;;;;0.10;0.10;;;;;;;21.17;46.76;101833.31;5065875;28;20021;-80
2023/07/17 08:05:12;;;;;;;0.10;0.10;;;;;;;21.35;47.49;101830.66;5065914;28;20029;-80
2023/07/17 08:07:39;;;;;;;0.13;0.13;;;;;;;21.58;48.29;101832.25;5065772;28;20029;-80
2023/07/17 08:10:05;;;;;;;0.10;0.10;;;;;;;21.69;48.26;101841.59;5063470;28;20083;-80
2023/07/17 08:12:32;;;;;;;0.05;0.05;;;;;;;21.64;47.05;101831.91;5066377;28;20037;-79
2023/07/17 08:14:58;;;;;;;0.20;0.20;;;;;;;21.74;46.73;101829.59;5064925;28;20031;-79
2023/07/17 08:17:24;;;;;;;0.55;0.55;;;;;;;21.81;47.37;101841.84;5060184;28;20036;-78
2023/07/17 08:19:50;;;;;;;0.10;0.10;;;;;;;21.66;46.29;101837.25;5062209;28;20032;-79
2023/07/17 08:22:16;;;;;;;1.17;0.43;;;;;;;21.59;45.82;101838.50;5065616;28;20033;-79
2023/07/17 08:24:42;;;;;;;0.10;0.10;;;;;;;21.69;46.14;101841.59;5063817;28;20125;-80
2023/07/17 08:27:08;;;;;;;0.10;0.10;;;;;;;21.75;46.59;101838.59;5064711;28;20033;-79
2023/07/17 08:29:35;;;;;;;0.52;0.52;;;;;;;21.71;46.66;101834.28;5063420;28;20108;-79
2023/07/17 08:32:01;;;;;;;0.10;0.10;;;;;;;21.69;46.49;101847.84;5063154;28;20040;-80
2023/07/17 08:34:27;;;;;;;1.08;0.65;;;;;;;21.72;45.10;101839.63;5063381;28;20123;-80
2023/07/17 08:36:53;;;;;;;0.47;0.47;;;;;;;21.94;45.70;101847.50;5061997;28;20021;-82
2023/07/17 08:39:19;;;;;;;0.10;0.10;;;;;;;22.00;45.02;101840.88;5061562;28;20052;-80
2023/07/17 08:41:46;;;;;;;0.05;0.05;;;;;;;22.03;44.31;101856.03;5059765;28;20037;-80
2023/07/17 08:44:16;;;;;;;0.45;0.45;;;;;;;22.05;44.83;101851.44;5060869;28;20101;-80
2023/07/17 08:46:43;;;;;;;0.10;0.10;;;;;;;22.16;45.57;101850.84;5064194;28;20063;-80
2023/07/17 08:49:11;;;;;;;5.25;0.47;;;;;;;22.06;45.29;101861.28;5062129;28;20029;-80
2023/07/17 08:51:37;;;;;;;0.08;0.08;;;;;;;21.88;45.16;101869.38;5062633;28;20104;-79
2023/07/17 08:54:04;;;;;;;1.10;1.02;;;;;;;21.71;47.50;101899.91;5062738;28;20025;-79
2023/07/17 08:56:31;;;;;;;0.00;0.00;;;;;;;21.33;54.57;101895.44;5067931;28;20033;-81
2023/07/17 08:58:57;;;;;;;2.63;1.15;;;;;;;20.81;58.67;101881.75;5063418;28;20437;-81
2023/07/17 09:01:23;;;;;;;0.10;0.10;;;;;;;20.58;60.53;101880.97;5064850;28;20029;-80
2023/07/17 09:03:52;;;;;;;0.20;0.20;;;;;;;20.29;61.38;101874.22;5056952;28;20029;-81
2023/07/17 09:06:24;;;;;;;0.22;0.22;;;;;;;20.27;60.54;101881.47;5063109;28;20037;-81
2023/07/17 09:08:51;;;;;;;0.35;0.35;;;;;;;20.21;61.79;101874.53;5063315;28;20028;-81
2023/07/17 09:11:19;;;;;;;0.08;0.08;;;;;;;20.32;60.96;101880.31;5063946;28;20047;-81
2023/07/17 09:13:46;;;;;;;0.10;0.10;;;;;;;20.28;61.58;101886.78;5062079;28;20041;-81
2023/07/17 09:18:52;;;;;;;0.75;0.75;;;;;;;20.24;62.01;101887.88;5143183;27;20112;-81
2023/07/17 09:21:21;;;;;;;0.10;0.10;;;;;;;20.23;61.05;101901.41;5129989;27;20047;-80
2023/07/17 09:23:51;;;;;;;0.10;0.10;;;;;;;20.12;63.10;101889.25;5111584;28;20027;-79
2023/07/17 09:26:20;;;;;;;0.10;0.10;;;;;;;19.98;63.92;101880.94;5125464;28;20020;-79
2023/07/17 09:31:25;;;;;;;0.20;0.20;;;;;;;19.54;64.84;101900.66;5135300;27;1202054;-79
2023/07/17 09:33:53;;;;;;;0.25;0.25;;;;;;;19.75;64.06;101900.69;5144863;28;20031;-80
2023/07/17 09:36:19;;;;;;;0.10;0.10;;;;;;;19.98;64.52;101884.50;5149237;27;20026;-79
2023/07/17 09:38:54;;;;;;;0.20;0.20;;;;;;;20.24;66.15;101887.88;5131575;28;20039;-78
2023/07/17 09:44:03;;;;;;;0.82;0.82;;;;;;;20.55;64.79;101888.28;5129264;27;20438;-78
2023/07/17 09:46:30;;;;;;;0.10;0.10;;;;;;;20.61;62.79;101899.69;5144573;28;20023;-79
2023/07/17 09:48:58;;;;;;;0.10;0.10;;;;;;;20.78;63.33;101903.44;5140267;28;20042;-80
2023/07/17 09:51:24;;;;;;;0.13;0.13;;;;;;;20.92;62.31;101895.59;5143965;27;20042;-80
2023/07/17 09:53:51;;;;;;;0.05;0.05;;;;;;;20.94;59.61;101895.53;5126463;28;20199;-80
2023/07/17 09:56:19;;;;;;;0.40;0.38;;;;;;;21.01;59.77;101897.84;5137837;27;20058;-79
2023/07/17 09:58:47;;;;;;;0.10;0.10;;;;;;;21.07;60.82;101904.78;5135811;28;20072;-79
2023/07/17 10:01:19;;;;;;;0.00;0.00;;;;;;;21.28;60.56;101897.50;5114862;27;20023;-80
2023/07/17 10:03:47;;;;;;;0.00;0.00;;;;;;;21.45;60.52;101898.47;5127854;28;20028;-79
2023/07/17 10:06:16;;;;;;;0.00;0.00;;;;;;;21.72;60.16;101906.16;5135195;27;20030;-81
2023/07/17 10:08:58;;;;;;;0.70;0.70;;;;;;;21.75;56.11;101890.69;5142724;27;20034;-81
2023/07/17 10:11:24;;;;;;;;;;;;;;;21.85;56.25;101904.59;5142232;27;20043;-81
2023/07/17 10:13:51;;;;;;;0.10;0.10;;;;;;;21.70;56.90;101902.69;5140668;27;19912;-81
2023/07/17 10:16:19;;;;;;;0.10;0.10;;;;;;;21.59;57.46;101896.00;5115485;28;20028;-80
2023/07/17 10:18:48;;;;;;;0.10;0.10;;;;;;;21.53;57.71;101907.03;5123172;28;20027;-80
2023/07/17 10:21:17;;;;;;;3.72;1.38;;;;;;;21.33;58.02;101908.91;5128421;27;20027;-81
2023/07/17 10:23:45;;;;;;;0.20;0.20;;;;;;;21.05;58.82;101913.84;5133743;28;20034;-80
2023/07/17 10:26:13;;;;;;;0.40;0.40;;;;;;;20.62;60.87;101914.00;5122620;28;20053;-78
2023/07/17 10:28:41;;;;;;;0.10;0.10;;;;;;;20.36;62.76;101925.00;5136711;28;20055;-79
2023/07/17 10:34:01;;;;;;;0.55;0.55;;;;;;;20.16;64.08;101920.50;5073212;28;20387;-80
2023/07/17 10:36:45;;;;;;;0.10;0.10;;;;;;;20.26;64.37;101912.91;5051998;28;20524;-81
2023/07/17 10:39:17;;;;;;;0.00;0.00;;;;;;;20.15;63.42;101915.16;5056556;28;20079;-80
2023/07/17 10:41:43;;;;;;;0.20;0.20;;;;;;;19.68;63.13;101949.34;5049015;28;20032;-80
2023/07/17 10:44:19;;;;;;;0.98;0.93;;;;;;;19.56;63.12;101949.84;5056254;28;20025;-79
2023/07/17 10:46:46;;;;;;;0.00;0.00;;;;;;;19.35;63.79;101936.34;5047546;28;20036;-82
2023/07/17 10:49:16;;;;;;;0.20;0.20;;;;;;;19.12;64.75;101936.38;5058079;28;20420;-81
2023/07/17 10:51:46;;;;;;;0.82;0.82;;;;;;;18.92;64.07;101943.38;5047847;28;20029;-80
2023/07/17 10:54:14;;;;;;;0.20;0.20;;;;;;;18.79;63.42;101945.63;5043565;28;20392;-81
2023/07/17 10:56:46;;;;;;;0.10;0.10;;;;;;;19.02;64.08;101938.53;5046126;28;20056;-80
2023/07/17 10:59:13;;;;;;;0.10;0.10;;;;;;;19.15;64.84;101938.91;5048825;28;20128;-81
2023/07/17 11:01:39;;;;;;;0.38;0.38;;;;;;;19.24;63.46;101941.25;5048179;28;20032;-81
2023/07/17 11:04:07;;;;;;;1.27;0.43;;;;;;;19.42;63.35;101938.78;5057484;28;20110;-81
2023/07/17 11:06:39;;;;;;;0.10;0.10;;;;;;;19.58;63.15;101931.84;5047909;28;20088;-80
2023/07/17 11:09:07;;;;;;;0.10;0.10;;;;;;;19.65;61.44;101929.78;5032632;28;20048;-78
2023/07/17 11:11:33;;;;;;;0.10;0.10;;;;;;;19.86;61.72;101933.41;5043266;28;20026;-81
2023/07/17 11:14:00;;;;;;;5.05;0.47;;;;;;;20.02;60.61;101928.28;5042356;28;20025;-79
2023/07/17 11:16:26;;;;;;;0.10;0.10;;;;;;;20.18;60.56;101925.81;5033041;28;20052;-78
2023/07/17 11:18:55;;;;;;;1.00;1.00;;;;;;;20.22;59.92;101931.94;5040428;28;20028;-78
2023/07/17 11:21:23;;;;;;;0.10;0.10;;;;;;;20.41;60.08;101930.19;5055806;28;20029;-80
2023/07/17 11:23:52;;;;;;;0.00;0.00;;;;;;;20.36;58.56;101941.16;5056912;28;20025;-81
2023/07/17 11:26:27;;;;;;;0.20;0.20;;;;;;;20.57;59.06;101943.81;5047770;28;20021;-81
2023/07/17 11:28:56;;;;;;;0.10;0.10;;;;;;;20.38;57.53;101929.44;5055252;28;20018;-81
2023/07/17 11:31:25;;;;;;;0.17;0.17;;;;;;;20.55;58.12;101934.97;5039133;28;20033;-81
2023/07/17 11:36:41;;;;;;;4.95;1.23;;;;;;;20.94;57.73;101934.09;5079801;28;20375;-81
2023/07/17 11:39:13;;;;;;;0.20;0.20;;;;;;;21.20;56.25;101926.63;5078350;28;20025;-82